CheckWX is a tool to help pilots better visualize weather data.  It is not intended as a substitute for an official pre-flight weather briefing.

12:39:18 UTC

EGUL TAF
RAF Lakenheath Airport
Lakenheath, United Kingdom
TAF EGUL 200500Z 2005/2111 25009KT 9999 FEW050 QNH3008INS BECMG 2012/2013 27012G18KT 9999 BKN050 QNH3017INS BECMG 2018/2019 25010KT 9999 BKN050 QNH3025INS TX19/2015Z TN10/2005Z

Aug-20@
05:00 UTC

Aug-20 @ 05:00 UTC

Aug-20@
12:00 UTC

Aug-20 @ 12:00 UTC

TAF EGUL 200500Z 2005/2111 25009KT 9999 FEW050 QNH3008INS

Expired

Wind
  • 250° at 9 KTS
Cloud Levels
  • Few at 5,000' AGL

Aug-20@
12:00 UTC

Aug-20 @ 12:00 UTC

Aug-20@
18:00 UTC

Aug-20 @ 18:00 UTC

BECMG 2012/2013 27012G18KT 9999 BKN050 QNH3017INS

Becoming

Becoming Conditions expected by Tue, Aug 20, 2019 @ 13:00 UTC

Wind
  • 270° at 12 KTS
  • {Gusting to 18 KTS
Cloud Levels
  • Broken at 5,000' AGL

Aug-20@
18:00 UTC

Aug-20 @ 18:00 UTC

Aug-21@
11:00 UTC

Aug-21 @ 11:00 UTC

BECMG 2018/2019 25010KT 9999 BKN050 QNH3025INS TX19/2015Z TN10/2005Z

Becoming

Becoming Conditions expected by Tue, Aug 20, 2019 @ 19:00 UTC

Wind
  • 250° at 10 KTS
Cloud Levels
  • Broken at 5,000' AGL